createdAt,value
2024-01-17T00:01:03.324Z,-1.18
2024-01-17T00:03:30.652Z,-0.85
2024-01-17T00:05:58.018Z,-0.70
2024-01-17T00:08:25.359Z,-0.87
2024-01-17T00:10:52.695Z,-1.09
2024-01-17T00:13:19.891Z,-0.46
2024-01-17T00:15:47.213Z,-0.05
2024-01-17T00:18:14.668Z,-0.01
2024-01-17T00:20:42.022Z,-0.37
2024-01-17T00:23:09.305Z,-0.37
2024-01-17T00:25:36.521Z,-0.72
2024-01-17T00:28:04.025Z,-0.52
2024-01-17T00:30:31.527Z,-0.44
2024-01-17T00:32:59.043Z,-0.47
2024-01-17T00:35:26.832Z,-0.79
2024-01-17T00:37:54.133Z,-0.86
2024-01-17T00:40:21.470Z,-0.61
2024-01-17T00:42:48.724Z,-0.88
2024-01-17T00:45:16.309Z,-1.68
2024-01-17T00:47:44.286Z,-1.84
2024-01-17T00:50:11.786Z,-1.55
2024-01-17T00:52:39.099Z,-1.50
2024-01-17T00:55:06.802Z,-1.51
2024-01-17T00:57:34.090Z,-1.59
2024-01-17T01:00:01.397Z,-1.37
2024-01-17T01:02:29.878Z,-1.35
2024-01-17T01:04:57.278Z,-1.94
2024-01-17T01:07:24.619Z,-1.48
2024-01-17T01:09:54.430Z,-1.70
2024-01-17T01:12:23.205Z,-1.93
2024-01-17T01:14:50.549Z,-1.90
2024-01-17T01:17:17.917Z,-2.11
2024-01-17T01:19:45.240Z,-2.20
2024-01-17T01:22:12.865Z,-1.89
2024-01-17T01:24:40.183Z,-1.63
2024-01-17T01:27:07.421Z,-1.72
2024-01-17T01:29:34.820Z,-1.66
2024-01-17T01:32:02.139Z,-1.53
2024-01-17T01:34:29.448Z,-1.63
2024-01-17T01:36:56.783Z,-1.96
2024-01-17T01:39:24.059Z,-2.74
2024-01-17T01:41:51.403Z,-3.10
2024-01-17T01:44:18.695Z,-3.38
2024-01-17T01:46:48.310Z,-3.45
2024-01-17T01:49:16.727Z,-3.17
2024-01-17T01:51:47.533Z,-3.33
2024-01-17T01:54:17.076Z,-3.08
2024-01-17T01:56:44.972Z,-3.04
2024-01-17T01:59:12.513Z,-3.01
2024-01-17T02:01:40.598Z,-2.96
2024-01-17T02:04:08.657Z,-2.84
2024-01-17T02:06:39.422Z,-2.83
2024-01-17T02:09:07.520Z,-2.87
2024-01-17T02:11:34.784Z,-3.15
2024-01-17T02:14:02.097Z,-2.49
2024-01-17T02:16:29.726Z,-2.31
2024-01-17T02:18:57.140Z,-2.72
2024-01-17T02:21:24.655Z,-2.41
2024-01-17T02:23:52.635Z,-2.91
2024-01-17T02:26:20.737Z,-3.05
2024-01-17T02:28:47.976Z,-2.77
2024-01-17T02:31:16.440Z,-2.60
2024-01-17T02:33:45.772Z,-3.22
2024-01-17T02:36:13.667Z,-2.92
2024-01-17T02:38:40.976Z,-2.67
2024-01-17T02:41:09.399Z,-3.03
2024-01-17T02:43:36.818Z,-3.09
2024-01-17T02:46:04.182Z,-3.05
2024-01-17T02:48:31.478Z,-2.83
2024-01-17T02:50:58.852Z,-3.27
2024-01-17T02:53:26.195Z,-2.92
2024-01-17T02:55:53.673Z,-3.07
2024-01-17T02:58:21.118Z,-3.46
2024-01-17T03:00:49.380Z,-3.68
2024-01-17T03:03:16.805Z,-3.72
2024-01-17T03:05:44.144Z,-3.48
2024-01-17T03:08:11.396Z,-3.30
2024-01-17T03:10:38.593Z,-3.27
2024-01-17T03:13:08.949Z,-3.35
2024-01-17T03:15:36.229Z,-3.71
2024-01-17T03:18:03.895Z,-3.76
2024-01-17T03:20:31.296Z,-3.98
2024-01-17T03:22:58.553Z,-3.82
2024-01-17T03:25:26.710Z,-3.81
2024-01-17T03:27:53.975Z,-3.95
2024-01-17T03:30:21.424Z,-3.67
2024-01-17T03:32:48.809Z,-3.97
2024-01-17T03:35:16.070Z,-4.11
2024-01-17T03:37:43.365Z,-4.02
2024-01-17T03:40:11.339Z,-4.17
2024-01-17T03:42:38.718Z,-4.39
2024-01-17T03:45:06.429Z,-3.88
2024-01-17T03:47:33.871Z,-4.06
2024-01-17T03:50:01.220Z,-3.99
2024-01-17T03:52:30.582Z,-4.31
2024-01-17T03:54:57.889Z,-4.04
2024-01-17T03:57:25.153Z,-4.23
2024-01-17T03:59:52.491Z,-4.62
2024-01-17T04:02:19.857Z,-4.37
2024-01-17T04:04:48.836Z,-4.25
2024-01-17T04:07:16.321Z,-4.33
2024-01-17T04:09:45.082Z,-4.76
2024-01-17T04:12:14.960Z,-4.31
2024-01-17T04:14:43.263Z,-4.69
2024-01-17T04:17:12.534Z,-5.13
2024-01-17T04:19:39.908Z,-4.77
2024-01-17T04:22:07.340Z,-4.48
2024-01-17T04:24:34.704Z,-4.63
2024-01-17T04:27:02.080Z,-4.62
2024-01-17T04:29:29.472Z,-4.63
2024-01-17T04:31:58.672Z,-5.38
2024-01-17T04:34:26.119Z,-4.86
2024-01-17T04:36:53.500Z,-4.78
2024-01-17T04:39:20.849Z,-5.34
2024-01-17T04:41:48.214Z,-5.27
2024-01-17T04:44:15.686Z,-5.14
2024-01-17T04:46:42.987Z,-5.42
2024-01-17T04:49:11.041Z,-5.34
2024-01-17T04:51:38.464Z,-5.19
2024-01-17T04:54:05.822Z,-5.47
2024-01-17T04:56:33.156Z,-5.27
2024-01-17T04:59:00.459Z,-5.43
2024-01-17T05:01:27.846Z,-5.54
2024-01-17T05:03:55.115Z,-5.51
2024-01-17T05:06:22.871Z,-6.07
2024-01-17T05:08:50.208Z,-6.41
2024-01-17T05:11:25.992Z,-6.21
2024-01-17T05:13:53.371Z,-6.08
2024-01-17T05:16:20.815Z,-6.09
2024-01-17T05:18:48.286Z,-5.97
2024-01-17T05:21:15.660Z,-5.54
2024-01-17T05:23:43.120Z,-5.92
2024-01-17T05:26:10.901Z,-6.07
2024-01-17T05:28:38.229Z,-6.22
2024-01-17T05:31:06.057Z,-6.15
2024-01-17T05:33:33.578Z,-6.26
2024-01-17T05:36:01.133Z,-6.14
2024-01-17T05:38:28.618Z,-5.90
2024-01-17T05:40:55.985Z,-6.11
2024-01-17T05:43:23.932Z,-6.79
2024-01-17T05:45:52.041Z,-6.72
2024-01-17T05:48:19.717Z,-6.68
2024-01-17T05:50:47.337Z,-7.04
2024-01-17T05:53:14.790Z,-6.64
2024-01-17T05:55:42.606Z,-6.74
2024-01-17T05:58:13.184Z,-6.19
2024-01-17T06:00:42.023Z,-5.94
2024-01-17T06:03:09.506Z,-5.79
2024-01-17T06:05:37.390Z,-6.24
2024-01-17T06:08:05.872Z,-6.58
2024-01-17T06:10:33.317Z,-6.55
2024-01-17T06:13:03.229Z,-6.45
2024-01-17T06:15:30.514Z,-6.33
2024-01-17T06:18:17.405Z,-6.08
2024-01-17T06:20:44.920Z,-6.22
2024-01-17T06:23:12.295Z,-6.12
2024-01-17T06:25:39.594Z,-6.02
2024-01-17T06:28:07.049Z,-6.24
2024-01-17T06:30:34.411Z,-6.12
2024-01-17T06:33:02.007Z,-6.16
2024-01-17T06:35:29.514Z,-6.38
2024-01-17T06:37:56.929Z,-6.19
2024-01-17T06:40:24.189Z,-6.06
2024-01-17T06:42:51.492Z,-6.22
2024-01-17T06:45:19.549Z,-6.53
2024-01-17T06:47:46.992Z,-6.51
2024-01-17T06:50:15.603Z,-6.37
2024-01-17T06:52:43.080Z,-6.70
2024-01-17T06:55:10.442Z,-6.51
2024-01-17T06:57:37.725Z,-6.36
2024-01-17T07:00:06.081Z,-6.62
2024-01-17T07:02:33.711Z,-6.62
2024-01-17T07:05:01.081Z,-6.84
2024-01-17T07:07:28.566Z,-6.54
2024-01-17T07:09:55.866Z,-7.04
2024-01-17T07:12:23.253Z,-7.06
2024-01-17T07:14:51.217Z,-7.07
2024-01-17T07:17:18.832Z,-6.80
2024-01-17T07:19:46.117Z,-6.53
2024-01-17T07:22:14.520Z,-6.81
2024-01-17T07:24:44.639Z,-7.19
2024-01-17T07:27:12.107Z,-6.96
2024-01-17T07:29:39.427Z,-7.38
2024-01-17T07:32:06.921Z,-7.13
2024-01-17T07:34:35.234Z,-6.59
2024-01-17T07:37:02.872Z,-6.58
2024-01-17T07:39:30.264Z,-6.33
2024-01-17T07:41:58.151Z,-6.65
2024-01-17T07:44:30.631Z,-6.72
2024-01-17T07:46:58.129Z,-7.09
2024-01-17T07:49:25.655Z,-6.65
2024-01-17T07:51:53.208Z,-6.83
2024-01-17T07:54:20.945Z,-6.76
2024-01-17T07:56:48.413Z,-6.55
2024-01-17T07:59:15.652Z,-6.93
2024-01-17T08:01:43.180Z,-6.81
2024-01-17T08:04:10.650Z,-6.82
2024-01-17T08:06:38.136Z,-6.70
2024-01-17T08:09:14.163Z,-6.67
2024-01-17T08:11:41.774Z,-6.41
2024-01-17T08:14:09.156Z,-6.29
2024-01-17T08:16:36.804Z,-6.18
2024-01-17T08:19:06.554Z,-6.27
2024-01-17T08:21:33.928Z,-6.83
2024-01-17T08:24:19.682Z,-6.79
2024-01-17T08:26:46.994Z,-6.68
2024-01-17T08:29:17.941Z,-7.12
2024-01-17T08:31:45.879Z,-7.28
2024-01-17T08:34:13.517Z,-6.98
2024-01-17T08:36:40.986Z,-6.51
2024-01-17T08:39:27.157Z,-6.33
2024-01-17T08:41:55.345Z,-6.20
2024-01-17T08:44:44.416Z,-6.51
2024-01-17T08:47:11.801Z,-7.21
2024-01-17T08:49:42.443Z,-6.85
2024-01-17T08:52:09.770Z,-7.19
2024-01-17T08:54:37.218Z,-7.13
2024-01-17T08:57:05.013Z,-7.10
2024-01-17T08:59:34.749Z,-6.99
2024-01-17T09:02:02.197Z,-6.58
2024-01-17T09:04:31.202Z,-6.85
2024-01-17T09:06:58.636Z,-7.32
2024-01-17T09:09:28.848Z,-7.06
2024-01-17T09:11:56.376Z,-7.09
2024-01-17T09:14:25.990Z,-7.62
2024-01-17T09:16:54.614Z,-7.25
2024-01-17T09:19:22.362Z,-6.95
2024-01-17T09:21:55.430Z,-6.63
2024-01-17T09:24:22.858Z,-6.38
2024-01-17T09:26:53.732Z,-6.16
2024-01-17T09:29:21.700Z,-6.24
2024-01-17T09:31:49.682Z,-6.85
2024-01-17T09:34:17.752Z,-6.76
2024-01-17T09:36:45.620Z,-6.80
2024-01-17T09:39:13.169Z,-6.81
2024-01-17T09:41:40.739Z,-6.93
2024-01-17T09:44:08.089Z,-7.37
2024-01-17T09:46:38.474Z,-7.30
2024-01-17T09:49:09.179Z,-7.22
2024-01-17T09:51:37.406Z,-7.28
2024-01-17T09:54:06.823Z,-6.81
2024-01-17T09:56:36.483Z,-6.73
2024-01-17T09:59:16.067Z,-6.83
2024-01-17T10:01:45.164Z,-7.41
2024-01-17T10:04:16.642Z,-7.34
2024-01-17T10:06:44.901Z,-6.73
2024-01-17T10:09:13.690Z,-6.42
2024-01-17T10:11:41.693Z,-6.14
2024-01-17T10:14:09.441Z,-6.33
2024-01-17T10:16:37.368Z,-6.51
2024-01-17T10:19:06.831Z,-6.89
2024-01-17T10:21:35.445Z,-6.83
2024-01-17T10:24:05.341Z,-6.95
2024-01-17T10:26:34.250Z,-7.26
2024-01-17T10:29:01.824Z,-7.07
2024-01-17T10:31:29.297Z,-7.05
2024-01-17T10:33:58.001Z,-6.99
2024-01-17T10:36:26.404Z,-6.91
2024-01-17T10:39:02.445Z,-7.08
2024-01-17T10:41:30.122Z,-6.96
2024-01-17T10:43:58.919Z,-7.05
2024-01-17T10:46:27.561Z,-7.40
2024-01-17T10:48:55.640Z,-7.41
2024-01-17T10:51:25.186Z,-7.60
2024-01-17T10:53:58.120Z,-7.21
2024-01-17T10:56:28.306Z,-7.60
2024-01-17T10:58:56.966Z,-7.61
2024-01-17T11:01:39.393Z,-7.32
2024-01-17T11:04:16.578Z,-7.30
2024-01-17T11:06:45.782Z,-7.74
2024-01-17T11:09:13.796Z,-7.59
2024-01-17T11:11:43.300Z,-7.62
2024-01-17T11:14:12.329Z,-7.49
2024-01-17T11:16:41.048Z,-6.95
2024-01-17T11:19:10.340Z,-7.17
2024-01-17T11:21:39.004Z,-7.11
2024-01-17T11:24:38.006Z,-7.09
2024-01-17T11:27:26.583Z,-7.27
2024-01-17T11:30:02.740Z,-6.98
2024-01-17T11:32:50.204Z,-7.18
2024-01-17T11:35:48.540Z,-6.93
2024-01-17T11:38:25.311Z,-7.26
2024-01-17T11:41:10.760Z,-7.31
2024-01-17T11:43:40.230Z,-7.45
2024-01-17T11:46:11.233Z,-7.64
2024-01-17T11:48:41.084Z,-7.47
2024-01-17T11:51:09.812Z,-7.85
2024-01-17T11:53:37.594Z,-7.73
2024-01-17T11:56:08.200Z,-7.26
2024-01-17T11:58:46.345Z,-7.07
2024-01-17T12:01:18.465Z,-7.10
2024-01-17T12:03:46.288Z,-7.13
2024-01-17T12:06:13.857Z,-7.41
2024-01-17T12:08:42.471Z,-7.30
2024-01-17T12:11:10.490Z,-7.46
2024-01-17T12:13:39.049Z,-7.32
2024-01-17T12:16:07.331Z,-7.07
2024-01-17T12:19:00.927Z,-7.13
2024-01-17T12:21:28.863Z,-7.71
2024-01-17T12:24:15.951Z,-7.27
2024-01-17T12:26:45.266Z,-7.24
2024-01-17T12:29:15.978Z,-7.14
2024-01-17T12:31:43.495Z,-6.56
2024-01-17T12:34:12.739Z,-7.05
2024-01-17T12:36:40.737Z,-7.20
2024-01-17T12:39:10.431Z,-7.23
2024-01-17T12:41:40.207Z,-7.01
2024-01-17T12:44:08.807Z,-7.07
2024-01-17T12:46:36.697Z,-7.08
2024-01-17T12:49:04.484Z,-7.01
2024-01-17T12:51:47.567Z,-7.29
2024-01-17T12:54:19.024Z,-7.43
2024-01-17T12:56:48.839Z,-7.23
2024-01-17T12:59:19.283Z,-6.90
2024-01-17T13:01:46.843Z,-6.94
2024-01-17T13:04:14.321Z,-7.40
2024-01-17T13:06:49.100Z,-6.96
2024-01-17T13:09:21.740Z,-7.49
2024-01-17T13:11:53.822Z,-7.61
2024-01-17T13:14:25.380Z,-7.26
2024-01-17T13:16:55.160Z,-7.35
2024-01-17T13:19:42.507Z,-7.23
2024-01-17T13:22:09.899Z,-7.88
2024-01-17T13:24:37.232Z,-7.75
2024-01-17T13:27:04.663Z,-7.66
2024-01-17T13:29:31.936Z,-7.49
2024-01-17T13:31:59.278Z,-7.57
2024-01-17T13:34:26.659Z,-7.95
2024-01-17T13:36:54.042Z,-7.93
2024-01-17T13:39:27.217Z,-8.08
2024-01-17T13:41:54.577Z,-7.89
2024-01-17T13:44:24.737Z,-7.94
2024-01-17T13:46:55.083Z,-7.99
2024-01-17T13:49:27.072Z,-8.35
2024-01-17T13:51:57.105Z,-8.17
2024-01-17T13:54:24.738Z,-8.38
2024-01-17T13:56:52.199Z,-8.36
2024-01-17T13:59:19.817Z,-8.32
2024-01-17T14:01:48.322Z,-8.25
2024-01-17T14:04:15.903Z,-8.26
2024-01-17T14:06:43.519Z,-8.65
2024-01-17T14:09:11.020Z,-8.67
2024-01-17T14:11:40.519Z,-9.04
2024-01-17T14:14:13.119Z,-8.72
2024-01-17T14:16:43.636Z,-8.89
2024-01-17T14:19:11.678Z,-8.73
2024-01-17T14:21:39.309Z,-8.96
2024-01-17T14:24:07.501Z,-8.69
2024-01-17T14:26:35.032Z,-8.88
2024-01-17T14:29:02.468Z,-9.01
2024-01-17T14:31:29.816Z,-9.01
2024-01-17T14:33:58.053Z,-9.49
2024-01-17T14:36:25.825Z,-8.97
2024-01-17T14:38:53.176Z,-8.98
2024-01-17T14:41:24.064Z,-9.37
2024-01-17T14:43:54.501Z,-9.13
2024-01-17T14:46:22.120Z,-9.29
2024-01-17T14:48:49.591Z,-8.99
2024-01-17T14:51:17.120Z,-8.76
2024-01-17T14:53:44.482Z,-8.68
2024-01-17T14:56:11.843Z,-8.93
2024-01-17T14:58:39.147Z,-8.92
2024-01-17T15:01:09.681Z,-8.81
2024-01-17T15:03:37.348Z,-8.76
2024-01-17T15:06:07.343Z,-8.85
2024-01-17T15:08:35.476Z,-8.87
2024-01-17T15:11:02.843Z,-8.85
2024-01-17T15:13:30.103Z,-8.88
2024-01-17T15:15:57.400Z,-8.78
2024-01-17T15:18:43.579Z,-9.02
2024-01-17T15:21:14.527Z,-8.79
2024-01-17T15:23:42.823Z,-8.97
2024-01-17T15:26:10.562Z,-8.86
2024-01-17T15:28:38.684Z,-8.87
2024-01-17T15:31:06.577Z,-8.81
2024-01-17T15:33:34.932Z,-8.70
2024-01-17T15:36:02.424Z,-8.55
2024-01-17T15:38:31.239Z,-8.63
2024-01-17T15:41:00.592Z,-8.77
2024-01-17T15:43:28.838Z,-8.60
2024-01-17T15:45:56.523Z,-8.58
2024-01-17T15:48:23.948Z,-8.76
2024-01-17T15:50:51.312Z,-8.94
2024-01-17T15:53:19.150Z,-8.89
2024-01-17T15:55:46.571Z,-8.85
2024-01-17T15:58:14.036Z,-8.96
2024-01-17T16:00:44.836Z,-8.65
2024-01-17T16:03:13.082Z,-8.38
2024-01-17T16:05:41.191Z,-9.17
2024-01-17T16:08:08.687Z,-8.84
2024-01-17T16:10:36.863Z,-8.54
2024-01-17T16:13:04.975Z,-8.64
2024-01-17T16:15:34.249Z,-9.02
2024-01-17T16:18:06.392Z,-8.82
2024-01-17T16:20:33.908Z,-8.70
2024-01-17T16:23:02.429Z,-8.74
2024-01-17T16:25:29.835Z,-8.70
2024-01-17T16:27:58.032Z,-8.56
2024-01-17T16:30:25.957Z,-8.60
2024-01-17T16:32:53.468Z,-8.79
2024-01-17T16:35:20.939Z,-8.78
2024-01-17T16:37:48.324Z,-8.53
2024-01-17T16:40:16.980Z,-8.68
2024-01-17T16:42:47.002Z,-8.82
2024-01-17T16:45:15.157Z,-8.92
2024-01-17T16:47:47.969Z,-8.61
2024-01-17T16:50:16.979Z,-8.70
2024-01-17T16:52:44.265Z,-8.60
2024-01-17T16:55:11.686Z,-8.76
2024-01-17T16:57:39.112Z,-8.93
2024-01-17T17:00:07.239Z,-8.95
2024-01-17T17:02:37.419Z,-8.79
2024-01-17T17:05:06.389Z,-8.96
2024-01-17T17:07:34.044Z,-8.82
2024-01-17T17:10:02.230Z,-8.57
2024-01-17T17:12:31.918Z,-8.54
2024-01-17T17:14:59.189Z,-8.65
2024-01-17T17:17:26.515Z,-8.43
2024-01-17T17:19:54.021Z,-8.24
2024-01-17T17:22:30.414Z,-8.10
2024-01-17T17:25:06.756Z,-8.14
2024-01-17T17:27:34.133Z,-8.13
2024-01-17T17:30:01.854Z,-8.09
2024-01-17T17:32:29.627Z,-8.07
2024-01-17T17:34:56.972Z,-8.09
2024-01-17T17:37:24.284Z,-7.99
2024-01-17T17:39:51.551Z,-7.91
2024-01-17T17:42:18.877Z,-7.99
2024-01-17T17:44:46.266Z,-7.82
2024-01-17T17:47:14.683Z,-7.97
2024-01-17T17:49:43.052Z,-8.05
2024-01-17T17:52:10.457Z,-7.99
2024-01-17T17:54:37.905Z,-7.76
2024-01-17T17:57:05.208Z,-7.86
2024-01-17T17:59:32.903Z,-8.11
2024-01-17T18:02:00.290Z,-8.41
2024-01-17T18:04:28.117Z,-8.30
2024-01-17T18:06:55.619Z,-8.43
2024-01-17T18:09:24.113Z,-8.41
2024-01-17T18:11:51.550Z,-8.34
2024-01-17T18:14:18.845Z,-8.34
2024-01-17T18:16:46.070Z,-8.24
2024-01-17T18:19:15.817Z,-8.16
2024-01-17T18:21:43.163Z,-8.45
2024-01-17T18:24:11.704Z,-8.48
2024-01-17T18:26:39.919Z,-8.51
2024-01-17T18:29:07.202Z,-8.44
2024-01-17T18:31:38.147Z,-8.72
2024-01-17T18:34:06.839Z,-8.71
2024-01-17T18:36:36.205Z,-8.68
2024-01-17T18:39:04.272Z,-8.45
2024-01-17T18:41:31.827Z,-8.31
2024-01-17T18:43:59.140Z,-8.51
2024-01-17T18:46:26.545Z,-8.38
2024-01-17T18:48:53.942Z,-8.47
2024-01-17T18:51:21.426Z,-8.32
2024-01-17T18:53:49.441Z,-8.23
2024-01-17T18:56:16.869Z,-8.19
2024-01-17T18:58:44.328Z,-8.12
2024-01-17T19:01:11.769Z,-8.25
2024-01-17T19:03:39.164Z,-7.89
2024-01-17T19:06:07.896Z,-7.93
2024-01-17T19:08:35.217Z,-7.81
2024-01-17T19:11:02.534Z,-7.92
2024-01-17T19:13:30.216Z,-7.83
2024-01-17T19:15:57.502Z,-7.82
2024-01-17T19:18:24.954Z,-7.94
2024-01-17T19:20:54.143Z,-8.06
2024-01-17T19:23:21.480Z,-7.79
2024-01-17T19:25:48.796Z,-7.83
2024-01-17T19:28:16.204Z,-7.91
2024-01-17T19:30:43.612Z,-7.70
2024-01-17T19:33:11.239Z,-7.78
2024-01-17T19:35:38.758Z,-7.49
2024-01-17T19:38:06.081Z,-7.46
2024-01-17T19:40:36.486Z,-7.50
2024-01-17T19:43:04.091Z,-7.47
2024-01-17T19:45:32.138Z,-7.68
2024-01-17T19:47:59.611Z,-7.87
2024-01-17T19:50:27.045Z,-7.65
2024-01-17T19:52:54.334Z,-7.82
2024-01-17T19:55:21.722Z,-7.71
2024-01-17T19:57:49.244Z,-7.49
2024-01-17T20:00:32.603Z,-7.37
2024-01-17T20:03:01.172Z,-7.39
2024-01-17T20:05:28.764Z,-7.28
2024-01-17T20:07:56.434Z,-7.26
2024-01-17T20:10:23.801Z,-7.37
2024-01-17T20:12:51.266Z,-7.28
2024-01-17T20:15:18.594Z,-7.30
2024-01-17T20:17:46.156Z,-7.17
2024-01-17T20:20:13.602Z,-7.17
2024-01-17T20:22:40.934Z,-7.46
2024-01-17T20:25:14.913Z,-7.31
2024-01-17T20:27:42.486Z,-7.32
2024-01-17T20:30:10.400Z,-7.21
2024-01-17T20:32:37.933Z,-7.13
2024-01-17T20:35:05.661Z,-7.03
2024-01-17T20:37:32.901Z,-7.07
2024-01-17T20:40:00.339Z,-6.87
2024-01-17T20:42:27.674Z,-6.84
2024-01-17T20:44:55.076Z,-6.93
2024-01-17T20:47:22.417Z,-7.02
2024-01-17T20:49:49.801Z,-7.04
2024-01-17T20:52:17.182Z,-7.09
2024-01-17T20:54:44.502Z,-7.03
2024-01-17T20:57:11.761Z,-7.06
2024-01-17T20:59:39.040Z,-6.96
2024-01-17T21:02:06.362Z,-6.93
2024-01-17T21:04:33.710Z,-6.96
2024-01-17T21:07:01.102Z,-6.98
2024-01-17T21:09:28.485Z,-6.75
2024-01-17T21:11:58.184Z,-6.76
2024-01-17T21:14:25.584Z,-6.85
2024-01-17T21:16:53.190Z,-7.06
2024-01-17T21:19:20.607Z,-6.90
2024-01-17T21:21:48.052Z,-6.92
2024-01-17T21:24:15.380Z,-6.79
2024-01-17T21:26:45.245Z,-6.87
2024-01-17T21:29:13.226Z,-6.83
2024-01-17T21:31:41.534Z,-6.76
2024-01-17T21:34:09.503Z,-6.63
2024-01-17T21:36:37.056Z,-6.78
2024-01-17T21:39:05.390Z,-6.81
2024-01-17T21:41:32.978Z,-6.55
2024-01-17T21:44:00.408Z,-6.45
2024-01-17T21:46:29.263Z,-6.60
2024-01-17T21:48:56.539Z,-6.59
2024-01-17T21:51:23.990Z,-6.71
2024-01-17T21:53:51.427Z,-6.74
2024-01-17T21:56:18.758Z,-6.57
2024-01-17T21:58:46.906Z,-6.48
2024-01-17T22:01:14.266Z,-6.65
2024-01-17T22:03:41.786Z,-6.66
2024-01-17T22:06:09.274Z,-6.87
2024-01-17T22:08:48.233Z,-6.89
2024-01-17T22:11:20.231Z,-6.93
2024-01-17T22:13:48.432Z,-6.86
2024-01-17T22:16:16.924Z,-6.97
2024-01-17T22:18:44.355Z,-6.96
2024-01-17T22:21:11.837Z,-7.04
2024-01-17T22:23:57.793Z,-7.11
2024-01-17T22:26:25.183Z,-7.17
2024-01-17T22:28:52.543Z,-7.22
2024-01-17T22:31:25.264Z,-7.30
2024-01-17T22:33:54.224Z,-7.14
2024-01-17T22:36:24.879Z,-6.95
2024-01-17T22:38:55.707Z,-7.07
2024-01-17T22:41:23.073Z,-7.11
2024-01-17T22:43:50.420Z,-6.94
2024-01-17T22:46:17.691Z,-6.82
2024-01-17T22:48:45.071Z,-6.79
2024-01-17T22:51:12.300Z,-6.94
2024-01-17T22:53:39.544Z,-7.19
2024-01-17T22:56:06.990Z,-7.07
2024-01-17T22:58:34.237Z,-7.12
2024-01-17T23:01:01.575Z,-6.89
2024-01-17T23:03:28.954Z,-6.83
2024-01-17T23:05:56.368Z,-6.83
2024-01-17T23:08:23.946Z,-6.78
2024-01-17T23:10:51.163Z,-6.89
2024-01-17T23:13:23.143Z,-6.67
2024-01-17T23:15:51.982Z,-6.55
2024-01-17T23:18:19.456Z,-6.63
2024-01-17T23:20:47.069Z,-6.59
2024-01-17T23:23:14.394Z,-6.92
2024-01-17T23:25:41.718Z,-6.94
2024-01-17T23:28:09.019Z,-6.89
2024-01-17T23:30:36.308Z,-6.87
2024-01-17T23:33:04.104Z,-6.72
2024-01-17T23:35:31.614Z,-6.65
2024-01-17T23:37:58.874Z,-6.55
2024-01-17T23:40:26.549Z,-6.87
2024-01-17T23:42:53.804Z,-6.96
2024-01-17T23:45:21.062Z,-7.01
2024-01-17T23:47:48.358Z,-7.03
2024-01-17T23:50:15.684Z,-7.06
2024-01-17T23:52:43.231Z,-6.98
2024-01-17T23:55:11.628Z,-6.96
2024-01-17T23:57:39.013Z,-7.06
